Time;durP1;ratioP1;P1;durP2;ratioP2;P2;SDS_P1;SDS_P2;PMS_P1;PMS_P2;Temp;Humidity;BMP_temperature;BMP_pressure;BME280_temperature;BME280_humidity;BME280_pressure;Samples;Min_cycle;Max_cycle;Signal;HPM_P1;HPM_P2
2023/03/10 00:01:07;;;;;;;0.20;0.20;;;;;;;;;;4822244;29;20049;-77
2023/03/10 00:03:33;;;;;;;0.20;0.20;;;;;;;;;;4839538;29;20143;-76
2023/03/10 00:06:01;;;;;;;0.20;0.20;;;;;;;;;;4839877;29;20045;-76
2023/03/10 00:08:27;;;;;;;0.20;0.20;;;;;;;;;;4823833;29;20042;-77
2023/03/10 00:10:53;;;;;;;0.20;0.20;;;;;;;;;;4815245;29;20056;-76
2023/03/10 00:13:19;;;;;;;0.20;0.20;;;;;;;;;;4821386;29;20081;-76
2023/03/10 00:15:45;;;;;;;0.20;0.20;;;;;;;;;;4831514;29;20062;-76
2023/03/10 00:18:14;;;;;;;0.20;0.20;;;;;;;;;;4819774;29;20467;-76
2023/03/10 00:20:43;;;;;;;0.20;0.20;;;;;;;;;;4820187;29;20057;-76
2023/03/10 00:23:09;;;;;;;0.20;0.20;;;;;;;;;;4819345;29;20057;-77
2023/03/10 00:25:35;;;;;;;0.20;0.20;;;;;;;;;;4822932;29;20095;-76
2023/03/10 00:28:01;;;;;;;0.20;0.20;;;;;;;;;;4819088;29;20107;-76
2023/03/10 00:30:33;;;;;;;0.20;0.20;;;;;;;;;;4823791;29;20046;-76
2023/03/10 00:33:00;;;;;;;0.20;0.20;;;;;;;;;;4806549;29;20123;-76
2023/03/10 00:35:28;;;;;;;0.20;0.20;;;;;;;;;;4828914;29;20470;-77
2023/03/10 00:37:55;;;;;;;0.20;0.20;;;;;;;;;;4829877;29;20098;-76
2023/03/10 00:40:24;;;;;;;0.10;0.10;;;;;;;;;;4820263;29;20651;-76
2023/03/10 00:42:50;;;;;;;0.20;0.20;;;;;;;;;;4817527;29;20135;-77
2023/03/10 00:45:16;;;;;;;0.20;0.20;;;;;;;;;;4820776;29;20045;-76
2023/03/10 00:47:42;;;;;;;0.20;0.20;;;;;;;;;;4818840;29;20103;-77
2023/03/10 00:50:08;;;;;;;0.20;0.20;;;;;;;;;;4817554;29;20050;-76
2023/03/10 00:52:34;;;;;;;0.20;0.20;;;;;;;;;;4822023;29;20066;-76
2023/03/10 00:55:00;;;;;;;0.20;0.20;;;;;;;;;;4824129;29;20069;-76
2023/03/10 00:57:27;;;;;;;0.20;0.20;;;;;;;;;;4819530;29;20049;-74
2023/03/10 00:59:53;;;;;;;0.20;0.20;;;;;;;;;;4824655;29;20052;-74
2023/03/10 01:02:19;;;;;;;0.20;0.20;;;;;;;;;;4817974;29;20057;-74
2023/03/10 01:04:52;;;;;;;0.20;0.20;;;;;;;;;;4820897;29;20057;-75
2023/03/10 01:07:18;;;;;;;0.20;0.20;;;;;;;;;;4832796;29;20050;-74
2023/03/10 01:09:47;;;;;;;0.20;0.20;;;;;;;;;;4840435;29;20095;-74
2023/03/10 01:12:13;;;;;;;0.20;0.20;;;;;;;;;;4836190;29;20713;-74
2023/03/10 01:14:39;;;;;;;0.20;0.20;;;;;;;;;;4813860;29;20053;-77
2023/03/10 01:17:05;;;;;;;0.20;0.20;;;;;;;;;;4833607;29;20057;-77
2023/03/10 01:19:31;;;;;;;0.20;0.20;;;;;;;;;;4834149;29;20041;-77
2023/03/10 01:21:57;;;;;;;0.20;0.20;;;;;;;;;;4837135;29;20132;-77
2023/03/10 01:24:23;;;;;;;0.20;0.20;;;;;;;;;;4821869;29;20084;-77
2023/03/10 01:26:49;;;;;;;0.20;0.20;;;;;;;;;;4835022;29;20156;-77
2023/03/10 01:29:15;;;;;;;0.20;0.20;;;;;;;;;;4840174;29;20104;-76
2023/03/10 01:31:41;;;;;;;0.20;0.20;;;;;;;;;;4827530;29;20050;-77
2023/03/10 01:34:07;;;;;;;0.20;0.20;;;;;;;;;;4839683;29;20072;-77
2023/03/10 01:36:33;;;;;;;0.20;0.20;;;;;;;;;;4835687;29;20054;-77
2023/03/10 01:38:59;;;;;;;0.20;0.20;;;;;;;;;;4831237;29;20399;-77
2023/03/10 01:41:26;;;;;;;0.20;0.20;;;;;;;;;;4814014;29;20049;-77
2023/03/10 01:43:53;;;;;;;0.20;0.20;;;;;;;;;;4821871;29;20042;-77
2023/03/10 01:46:38;;;;;;;0.20;0.20;;;;;;;;;;4835956;29;20056;-77
2023/03/10 01:49:10;;;;;;;0.20;0.20;;;;;;;;;;4836938;29;20053;-75
2023/03/10 01:51:37;;;;;;;0.20;0.20;;;;;;;;;;4819799;29;20049;-76
2023/03/10 01:54:06;;;;;;;0.20;0.20;;;;;;;;;;4838360;29;20050;-77
2023/03/10 01:56:35;;;;;;;0.13;0.13;;;;;;;;;;4820070;29;20573;-77
2023/03/10 01:59:02;;;;;;;0.20;0.20;;;;;;;;;;4839760;29;20494;-77
2023/03/10 02:01:28;;;;;;;0.20;0.20;;;;;;;;;;4837242;29;20118;-77
2023/03/10 02:03:58;;;;;;;0.10;0.10;;;;;;;;;;4839374;29;20046;-77
2023/03/10 02:06:25;;;;;;;0.20;0.20;;;;;;;;;;4819449;29;20046;-75
2023/03/10 02:08:56;;;;;;;0.20;0.20;;;;;;;;;;4817075;29;20085;-74
2023/03/10 02:11:22;;;;;;;0.20;0.20;;;;;;;;;;4830187;29;20046;-75
2023/03/10 02:13:48;;;;;;;0.10;0.10;;;;;;;;;;4835213;29;20050;-75
2023/03/10 02:16:15;;;;;;;0.20;0.20;;;;;;;;;;4833856;29;20052;-75
2023/03/10 02:18:43;;;;;;;0.20;0.20;;;;;;;;;;4816551;29;20477;-75
2023/03/10 02:21:17;;;;;;;0.10;0.10;;;;;;;;;;4833948;29;20046;-75
2023/03/10 02:24:09;;;;;;;0.20;0.20;;;;;;;;;;4829164;29;20054;-75
2023/03/10 02:26:40;;;;;;;0.20;0.20;;;;;;;;;;4807877;29;20058;-74
2023/03/10 02:29:09;;;;;;;0.20;0.20;;;;;;;;;;4820640;29;20058;-75
2023/03/10 02:31:35;;;;;;;0.20;0.20;;;;;;;;;;4820079;29;20042;-75
2023/03/10 02:34:05;;;;;;;0.20;0.20;;;;;;;;;;4821975;29;20058;-75
2023/03/10 02:36:31;;;;;;;0.20;0.20;;;;;;;;;;4820333;29;20057;-75
2023/03/10 02:38:57;;;;;;;0.20;0.20;;;;;;;;;;4840591;29;20149;-75
2023/03/10 02:41:26;;;;;;;0.20;0.20;;;;;;;;;;4819410;29;20156;-75
2023/03/10 02:43:53;;;;;;;0.20;0.20;;;;;;;;;;4833624;29;20042;-75
2023/03/10 02:46:22;;;;;;;0.20;0.20;;;;;;;;;;4823924;29;20538;-75
2023/03/10 02:48:48;;;;;;;0.20;0.20;;;;;;;;;;4857497;29;20046;-75
2023/03/10 02:51:16;;;;;;;0.20;0.20;;;;;;;;;;4829387;29;20057;-76
2023/03/10 02:53:42;;;;;;;0.20;0.20;;;;;;;;;;4837115;29;20102;-75
2023/03/10 02:56:09;;;;;;;0.20;0.20;;;;;;;;;;4836075;29;20046;-76
2023/03/10 02:58:38;;;;;;;0.20;0.20;;;;;;;;;;4838580;29;20053;-75
2023/03/10 03:01:04;;;;;;;0.20;0.20;;;;;;;;;;4829900;29;20058;-75
2023/03/10 03:03:30;;;;;;;0.20;0.20;;;;;;;;;;4835692;29;20418;-75
2023/03/10 03:05:56;;;;;;;0.20;0.20;;;;;;;;;;4837888;29;20121;-75
2023/03/10 03:08:23;;;;;;;0.20;0.20;;;;;;;;;;4819854;29;20633;-75
2023/03/10 03:10:49;;;;;;;0.20;0.20;;;;;;;;;;4822335;29;20089;-75
2023/03/10 03:13:15;;;;;;;0.20;0.20;;;;;;;;;;4845551;29;20093;-75
2023/03/10 03:15:41;;;;;;;0.20;0.20;;;;;;;;;;4835766;29;20563;-75
2023/03/10 03:18:07;;;;;;;0.20;0.20;;;;;;;;;;4836054;29;20050;-75
2023/03/10 03:20:35;;;;;;;0.13;0.13;;;;;;;;;;4822718;29;20106;-74
2023/03/10 03:23:02;;;;;;;0.20;0.20;;;;;;;;;;4818659;29;20061;-75
2023/03/10 03:25:29;;;;;;;0.20;0.20;;;;;;;;;;4842667;29;20046;-76
2023/03/10 03:27:58;;;;;;;0.20;0.20;;;;;;;;;;4820448;29;20081;-75
2023/03/10 03:30:26;;;;;;;0.20;0.20;;;;;;;;;;4840001;29;20057;-75
2023/03/10 03:32:53;;;;;;;0.20;0.20;;;;;;;;;;4841642;29;20050;-75
2023/03/10 03:35:22;;;;;;;0.20;0.20;;;;;;;;;;4847085;29;20053;-75
2023/03/10 03:37:52;;;;;;;0.20;0.20;;;;;;;;;;4824731;29;20050;-75
2023/03/10 03:40:18;;;;;;;0.20;0.20;;;;;;;;;;4834413;29;20514;-75
2023/03/10 03:42:45;;;;;;;0.20;0.20;;;;;;;;;;4834161;29;20050;-75
2023/03/10 03:45:12;;;;;;;0.20;0.20;;;;;;;;;;4827044;29;20371;-75
2023/03/10 03:47:38;;;;;;;0.20;0.20;;;;;;;;;;4845889;29;20050;-75
2023/03/10 03:50:05;;;;;;;0.20;0.20;;;;;;;;;;4843125;29;20050;-75
2023/03/10 03:52:31;;;;;;;0.20;0.20;;;;;;;;;;4819936;29;20104;-75
2023/03/10 03:55:00;;;;;;;0.20;0.20;;;;;;;;;;4821438;29;20057;-75
2023/03/10 03:57:26;;;;;;;0.20;0.20;;;;;;;;;;4834645;29;20050;-75
2023/03/10 03:59:52;;;;;;;0.20;0.20;;;;;;;;;;4837272;29;20049;-75
2023/03/10 04:02:18;;;;;;;0.20;0.20;;;;;;;;;;4839462;29;20106;-75
2023/03/10 04:04:45;;;;;;;0.20;0.20;;;;;;;;;;4841624;29;20448;-76
2023/03/10 04:07:11;;;;;;;0.20;0.20;;;;;;;;;;4822548;29;20135;-75
2023/03/10 04:09:41;;;;;;;0.10;0.10;;;;;;;;;;4823673;29;20391;-75
2023/03/10 04:12:08;;;;;;;0.17;0.17;;;;;;;;;;4836620;29;20587;-75
2023/03/10 04:14:34;;;;;;;0.20;0.20;;;;;;;;;;4824626;29;20060;-74
2023/03/10 04:17:00;;;;;;;0.20;0.20;;;;;;;;;;4839810;29;20052;-75
2023/03/10 04:19:26;;;;;;;0.20;0.20;;;;;;;;;;4843317;29;20049;-75
2023/03/10 04:21:52;;;;;;;0.20;0.20;;;;;;;;;;4820725;29;20054;-75
2023/03/10 04:24:21;;;;;;;0.10;0.10;;;;;;;;;;4821140;29;20136;-75
2023/03/10 04:26:53;;;;;;;0.20;0.20;;;;;;;;;;4820859;29;20057;-75
2023/03/10 04:29:23;;;;;;;0.20;0.20;;;;;;;;;;4811343;29;20071;-75
2023/03/10 04:31:50;;;;;;;0.20;0.20;;;;;;;;;;4820614;29;20159;-75
2023/03/10 04:34:16;;;;;;;0.15;0.15;;;;;;;;;;4823101;29;20054;-75
2023/03/10 04:36:42;;;;;;;0.20;0.20;;;;;;;;;;4839929;29;20730;-75
2023/03/10 04:39:08;;;;;;;0.20;0.20;;;;;;;;;;4807969;29;20078;-75
2023/03/10 04:41:35;;;;;;;0.20;0.20;;;;;;;;;;4819367;29;20058;-75
2023/03/10 04:44:01;;;;;;;0.20;0.20;;;;;;;;;;4834203;29;20041;-75
2023/03/10 04:46:27;;;;;;;0.20;0.20;;;;;;;;;;4838694;29;20422;-75
2023/03/10 04:48:54;;;;;;;0.20;0.20;;;;;;;;;;4823114;29;20054;-75
2023/03/10 04:51:20;;;;;;;0.13;0.13;;;;;;;;;;4822883;29;20049;-75
2023/03/10 04:53:46;;;;;;;0.20;0.20;;;;;;;;;;4820576;29;20410;-75
2023/03/10 04:56:13;;;;;;;0.20;0.20;;;;;;;;;;4838047;29;20045;-75
2023/03/10 04:58:39;;;;;;;0.20;0.20;;;;;;;;;;4823085;29;20552;-75
2023/03/10 05:01:09;;;;;;;0.10;0.10;;;;;;;;;;4821512;29;20050;-76
2023/03/10 05:03:35;;;;;;;0.20;0.20;;;;;;;;;;4838847;29;20184;-74
2023/03/10 05:06:01;;;;;;;0.20;0.20;;;;;;;;;;4822690;29;20053;-75
2023/03/10 05:08:27;;;;;;;0.20;0.20;;;;;;;;;;4838238;29;20042;-75
2023/03/10 05:10:53;;;;;;;0.20;0.20;;;;;;;;;;4842912;29;20081;-76
2023/03/10 05:13:19;;;;;;;0.20;0.20;;;;;;;;;;4821632;29;20129;-76
2023/03/10 05:15:45;;;;;;;0.20;0.20;;;;;;;;;;4839595;29;20057;-76
2023/03/10 05:18:12;;;;;;;0.20;0.20;;;;;;;;;;4824345;29;20049;-76
2023/03/10 05:20:38;;;;;;;0.20;0.20;;;;;;;;;;4825466;29;20061;-76
2023/03/10 05:23:04;;;;;;;0.20;0.20;;;;;;;;;;4822691;29;20057;-76
2023/03/10 05:25:30;;;;;;;0.20;0.20;;;;;;;;;;4837955;29;20046;-76
2023/03/10 05:27:56;;;;;;;0.20;0.20;;;;;;;;;;4832210;29;20054;-76
2023/03/10 05:30:22;;;;;;;0.20;0.20;;;;;;;;;;4857072;29;20046;-75
2023/03/10 05:32:48;;;;;;;0.20;0.20;;;;;;;;;;4842577;29;20136;-77
2023/03/10 05:35:14;;;;;;;0.20;0.20;;;;;;;;;;4841372;29;20052;-76
2023/03/10 05:37:42;;;;;;;0.20;0.20;;;;;;;;;;4818745;29;20061;-76
2023/03/10 05:40:17;;;;;;;0.20;0.20;;;;;;;;;;4837410;29;20053;-76
2023/03/10 05:42:43;;;;;;;0.15;0.15;;;;;;;;;;4830418;29;20062;-76
2023/03/10 05:45:10;;;;;;;0.20;0.20;;;;;;;;;;4830071;29;20114;-76
2023/03/10 05:47:36;;;;;;;0.20;0.20;;;;;;;;;;4819721;29;20088;-76
2023/03/10 05:50:02;;;;;;;0.20;0.20;;;;;;;;;;4837808;29;20107;-77
2023/03/10 05:52:28;;;;;;;0.17;0.17;;;;;;;;;;4822284;29;20058;-77
2023/03/10 05:54:54;;;;;;;0.20;0.20;;;;;;;;;;4826995;29;20098;-77
2023/03/10 05:57:20;;;;;;;0.20;0.20;;;;;;;;;;4815219;29;20071;-77
2023/03/10 05:59:52;;;;;;;0.20;0.20;;;;;;;;;;4830612;29;20132;-77
2023/03/10 06:02:18;;;;;;;0.10;0.10;;;;;;;;;;4830131;29;20490;-77
2023/03/10 06:04:44;;;;;;;0.10;0.10;;;;;;;;;;4814624;29;20042;-77
2023/03/10 06:07:10;;;;;;;0.20;0.20;;;;;;;;;;4846127;29;20053;-77
2023/03/10 06:09:36;;;;;;;0.20;0.20;;;;;;;;;;4834889;29;20558;-77
2023/03/10 06:12:03;;;;;;;0.20;0.20;;;;;;;;;;4815784;29;20293;-77
2023/03/10 06:14:29;;;;;;;0.20;0.20;;;;;;;;;;4836406;29;20399;-77
2023/03/10 06:16:55;;;;;;;0.20;0.20;;;;;;;;;;4830191;29;20085;-76
2023/03/10 06:19:27;;;;;;;0.10;0.10;;;;;;;;;;4813463;29;20054;-76
2023/03/10 06:21:53;;;;;;;0.10;0.10;;;;;;;;;;4831641;29;20049;-76
2023/03/10 06:24:19;;;;;;;0.10;0.10;;;;;;;;;;4836994;29;20194;-75
2023/03/10 06:26:45;;;;;;;0.20;0.20;;;;;;;;;;4829488;29;20157;-75
2023/03/10 06:29:11;;;;;;;0.20;0.20;;;;;;;;;;4839683;29;20444;-75
2023/03/10 06:31:37;;;;;;;0.20;0.20;;;;;;;;;;4821165;29;20103;-76
2023/03/10 06:34:03;;;;;;;0.20;0.20;;;;;;;;;;4805753;29;20571;-75
2023/03/10 06:36:31;;;;;;;0.20;0.20;;;;;;;;;;4819169;29;20090;-75
2023/03/10 06:38:57;;;;;;;0.20;0.20;;;;;;;;;;4821610;29;20108;-75
2023/03/10 06:41:24;;;;;;;0.20;0.20;;;;;;;;;;4801975;29;20111;-76
2023/03/10 06:43:50;;;;;;;0.20;0.20;;;;;;;;;;4801529;29;20335;-76
2023/03/10 06:46:16;;;;;;;0.20;0.20;;;;;;;;;;4814120;29;20085;-75
2023/03/10 06:48:45;;;;;;;0.20;0.20;;;;;;;;;;4825719;29;20086;-76
2023/03/10 06:51:16;;;;;;;0.20;0.20;;;;;;;;;;4794217;29;20133;-76
2023/03/10 06:53:42;;;;;;;0.20;0.20;;;;;;;;;;4803411;29;20054;-76
2023/03/10 06:56:13;;;;;;;0.20;0.20;;;;;;;;;;4818785;29;20510;-77
2023/03/10 06:58:39;;;;;;;0.20;0.20;;;;;;;;;;4821193;29;20043;-76
2023/03/10 07:01:06;;;;;;;0.15;0.15;;;;;;;;;;4800884;29;20065;-77
2023/03/10 07:03:32;;;;;;;0.20;0.20;;;;;;;;;;4805551;29;20050;-76
2023/03/10 07:06:02;;;;;;;0.20;0.20;;;;;;;;;;4804220;29;20061;-75
2023/03/10 07:08:31;;;;;;;0.20;0.20;;;;;;;;;;4807588;29;20273;-75
2023/03/10 07:10:57;;;;;;;0.20;0.20;;;;;;;;;;4805881;29;20051;-75
2023/03/10 07:13:23;;;;;;;0.20;0.20;;;;;;;;;;4806646;29;20097;-75
2023/03/10 07:15:49;;;;;;;0.10;0.10;;;;;;;;;;4823030;29;20399;-76
2023/03/10 07:18:15;;;;;;;0.10;0.10;;;;;;;;;;4800172;29;20058;-76
2023/03/10 07:20:51;;;;;;;0.20;0.20;;;;;;;;;;4791707;29;21543;-76
2023/03/10 07:23:17;;;;;;;0.20;0.20;;;;;;;;;;4800433;29;20047;-79
2023/03/10 07:25:50;;;;;;;0.10;0.10;;;;;;;;;;4817147;29;20042;-78
2023/03/10 07:28:16;;;;;;;0.10;0.10;;;;;;;;;;4824514;29;20053;-79
2023/03/10 07:30:45;;;;;;;0.20;0.20;;;;;;;;;;4842212;29;20045;-80
2023/03/10 07:33:11;;;;;;;0.10;0.10;;;;;;;;;;4831783;29;20429;-78
2023/03/10 07:35:38;;;;;;;0.20;0.20;;;;;;;;;;4823134;29;20136;-80
2023/03/10 07:38:04;;;;;;;0.20;0.20;;;;;;;;;;4841779;29;20065;-79
2023/03/10 07:40:30;;;;;;;0.20;0.20;;;;;;;;;;4833115;29;20049;-77
2023/03/10 07:42:56;;;;;;;0.20;0.20;;;;;;;;;;4832218;29;20050;-78
2023/03/10 07:45:23;;;;;;;0.10;0.10;;;;;;;;;;4837437;29;20045;-77
2023/03/10 07:47:50;;;;;;;0.10;0.10;;;;;;;;;;4830674;29;20110;-77
2023/03/10 07:50:16;;;;;;;0.20;0.20;;;;;;;;;;4825818;29;20434;-78
2023/03/10 07:52:42;;;;;;;0.20;0.20;;;;;;;;;;4825604;29;20057;-77
2023/03/10 07:55:08;;;;;;;0.20;0.20;;;;;;;;;;4841846;29;20081;-78
2023/03/10 07:57:34;;;;;;;0.13;0.13;;;;;;;;;;4823653;29;20103;-79
2023/03/10 08:00:00;;;;;;;0.10;0.10;;;;;;;;;;4823744;29;20493;-79
2023/03/10 08:02:26;;;;;;;0.20;0.20;;;;;;;;;;4823718;29;20506;-78
2023/03/10 08:04:52;;;;;;;0.20;0.20;;;;;;;;;;4839857;29;20494;-79
2023/03/10 08:07:21;;;;;;;0.20;0.20;;;;;;;;;;4840839;29;20050;-79
2023/03/10 08:09:51;;;;;;;0.10;0.10;;;;;;;;;;4840458;29;20054;-80
2023/03/10 08:12:17;;;;;;;0.20;0.20;;;;;;;;;;4853014;29;20046;-80
2023/03/10 08:14:43;;;;;;;0.20;0.20;;;;;;;;;;4859533;29;20436;-79
2023/03/10 08:17:09;;;;;;;0.20;0.20;;;;;;;;;;4838081;29;20053;-77
2023/03/10 08:19:37;;;;;;;0.20;0.20;;;;;;;;;;4843003;29;20049;-78
2023/03/10 08:22:03;;;;;;;0.17;0.17;;;;;;;;;;4840318;29;20125;-78
2023/03/10 08:24:29;;;;;;;0.20;0.20;;;;;;;;;;4841109;29;20125;-79
2023/03/10 08:26:55;;;;;;;0.20;0.20;;;;;;;;;;4840647;29;20061;-79
2023/03/10 08:29:21;;;;;;;0.20;0.20;;;;;;;;;;4834929;29;20133;-78
2023/03/10 08:31:47;;;;;;;0.10;0.10;;;;;;;;;;4829731;29;20049;-78
2023/03/10 08:34:14;;;;;;;0.20;0.20;;;;;;;;;;4859716;29;20058;-78
2023/03/10 08:36:40;;;;;;;0.20;0.20;;;;;;;;;;4842555;29;20095;-79
2023/03/10 08:39:06;;;;;;;0.20;0.20;;;;;;;;;;4846118;29;20129;-81
2023/03/10 08:41:36;;;;;;;0.20;0.20;;;;;;;;;;4835426;29;20050;-79
2023/03/10 08:44:05;;;;;;;0.20;0.20;;;;;;;;;;4839372;29;20041;-79
2023/03/10 08:46:34;;;;;;;0.20;0.20;;;;;;;;;;4840543;29;20585;-79
2023/03/10 08:49:00;;;;;;;0.20;0.20;;;;;;;;;;4840176;29;20123;-79
2023/03/10 08:51:27;;;;;;;0.10;0.10;;;;;;;;;;4845503;29;20161;-80
2023/03/10 08:53:53;;;;;;;0.10;0.10;;;;;;;;;;4854228;29;20068;-74
2023/03/10 08:56:21;;;;;;;0.20;0.20;;;;;;;;;;4823730;29;20141;-77
2023/03/10 08:58:47;;;;;;;0.10;0.10;;;;;;;;;;4824297;29;20038;-79
2023/03/10 09:01:14;;;;;;;0.20;0.20;;;;;;;;;;4848455;29;20109;-80
2023/03/10 09:03:41;;;;;;;0.20;0.20;;;;;;;;;;4846152;29;20145;-80
2023/03/10 09:06:08;;;;;;;0.20;0.20;;;;;;;;;;4823759;29;20142;-81
2023/03/10 09:08:34;;;;;;;0.20;0.20;;;;;;;;;;4839770;29;20789;-80
2023/03/10 09:11:00;;;;;;;0.20;0.20;;;;;;;;;;4840295;29;20077;-81
2023/03/10 09:13:26;;;;;;;0.20;0.20;;;;;;;;;;4824608;29;20502;-80
2023/03/10 09:15:53;;;;;;;0.20;0.20;;;;;;;;;;4842914;29;20358;-80
2023/03/10 09:18:22;;;;;;;0.20;0.20;;;;;;;;;;4827628;29;20045;-80
2023/03/10 09:20:48;;;;;;;0.20;0.20;;;;;;;;;;4841816;29;20045;-80
2023/03/10 09:23:14;;;;;;;0.20;0.20;;;;;;;;;;4836148;29;20073;-81
2023/03/10 09:25:41;;;;;;;0.20;0.20;;;;;;;;;;4837416;29;20050;-79
2023/03/10 09:28:10;;;;;;;0.20;0.20;;;;;;;;;;4834761;29;20056;-80
2023/03/10 09:30:38;;;;;;;0.20;0.20;;;;;;;;;;4838827;29;20034;-78
2023/03/10 09:33:04;;;;;;;0.20;0.20;;;;;;;;;;4840648;29;20089;-79
2023/03/10 09:35:30;;;;;;;0.20;0.20;;;;;;;;;;4846383;29;20085;-78
2023/03/10 09:37:56;;;;;;;0.20;0.20;;;;;;;;;;4822313;29;20054;-79
2023/03/10 09:40:23;;;;;;;0.10;0.10;;;;;;;;;;4843087;29;20088;-79
2023/03/10 09:42:55;;;;;;;0.20;0.20;;;;;;;;;;4835427;29;20511;-79
2023/03/10 09:45:40;;;;;;;0.10;0.10;;;;;;;;;;4825948;29;20038;-79
2023/03/10 09:48:21;;;;;;;0.20;0.20;;;;;;;;;;4814347;29;20081;-79
2023/03/10 09:50:48;;;;;;;0.20;0.20;;;;;;;;;;4833325;29;20133;-79
2023/03/10 09:53:14;;;;;;;0.20;0.20;;;;;;;;;;4820379;29;20053;-79
2023/03/10 09:55:42;;;;;;;0.20;0.20;;;;;;;;;;4833056;29;20055;-79
2023/03/10 09:58:11;;;;;;;0.20;0.20;;;;;;;;;;4825572;29;20049;-79
2023/03/10 10:00:39;;;;;;;0.20;0.20;;;;;;;;;;4823655;29;20038;-80
2023/03/10 10:03:11;;;;;;;0.10;0.10;;;;;;;;;;4823293;29;20543;-80
2023/03/10 10:05:38;;;;;;;0.20;0.20;;;;;;;;;;4851596;29;20056;-80
2023/03/10 10:08:07;;;;;;;0.20;0.20;;;;;;;;;;4831303;29;20069;-80
2023/03/10 10:10:36;;;;;;;0.20;0.20;;;;;;;;;;4823480;29;20052;-78
2023/03/10 10:13:13;;;;;;;0.20;0.20;;;;;;;;;;4822726;29;20042;-80
2023/03/10 10:15:48;;;;;;;0.17;0.17;;;;;;;;;;4840649;29;20082;-83
2023/03/10 10:18:18;;;;;;;0.20;0.20;;;;;;;;;;4847855;29;20047;-82
2023/03/10 10:20:48;;;;;;;0.20;0.20;;;;;;;;;;4836104;29;20046;-78
2023/03/10 10:23:19;;;;;;;0.17;0.17;;;;;;;;;;4829513;29;20053;-81
2023/03/10 10:25:45;;;;;;;0.20;0.20;;;;;;;;;;4823827;29;20046;-79
2023/03/10 10:28:19;;;;;;;0.20;0.20;;;;;;;;;;4837792;29;20054;-80
2023/03/10 10:30:45;;;;;;;0.20;0.20;;;;;;;;;;4837292;29;20065;-80
2023/03/10 10:33:13;;;;;;;0.20;0.20;;;;;;;;;;4822729;29;20082;-78
2023/03/10 10:36:05;;;;;;;0.20;0.20;;;;;;;;;;4840093;29;20503;-81
2023/03/10 10:38:31;;;;;;;0.20;0.20;;;;;;;;;;4824653;29;20072;-80
2023/03/10 10:41:02;;;;;;;0.20;0.20;;;;;;;;;;4830572;29;20043;-79
2023/03/10 10:43:28;;;;;;;0.20;0.20;;;;;;;;;;4847732;29;20050;-79
2023/03/10 10:45:56;;;;;;;0.20;0.20;;;;;;;;;;4828114;29;20310;-79
2023/03/10 10:48:43;;;;;;;0.20;0.20;;;;;;;;;;4831177;29;20168;-79
2023/03/10 10:51:27;;;;;;;0.20;0.20;;;;;;;;;;4821316;29;20471;-78
2023/03/10 10:53:53;;;;;;;0.20;0.20;;;;;;;;;;4819971;29;20054;-77
2023/03/10 10:56:20;;;;;;;0.20;0.20;;;;;;;;;;4820601;29;20491;-79
2023/03/10 10:59:04;;;;;;;0.20;0.20;;;;;;;;;;4841868;29;20054;-77
2023/03/10 11:01:49;;;;;;;0.20;0.20;;;;;;;;;;4830047;29;20056;-77
2023/03/10 11:04:15;;;;;;;0.20;0.20;;;;;;;;;;4847115;29;20439;-77
2023/03/10 11:06:41;;;;;;;0.20;0.20;;;;;;;;;;4823680;29;20050;-77
2023/03/10 11:09:11;;;;;;;0.20;0.20;;;;;;;;;;4806237;29;20050;-77
2023/03/10 11:11:59;;;;;;;0.20;0.20;;;;;;;;;;4819740;29;20050;-74
2023/03/10 11:14:44;;;;;;;0.20;0.20;;;;;;;;;;4822332;29;20078;-76
2023/03/10 11:17:22;;;;;;;0.20;0.20;;;;;;;;;;4818822;29;20510;-78
2023/03/10 11:20:07;;;;;;;0.20;0.20;;;;;;;;;;4832773;29;20129;-76
2023/03/10 11:22:33;;;;;;;0.20;0.20;;;;;;;;;;4838670;29;20499;-77
2023/03/10 11:25:02;;;;;;;0.20;0.20;;;;;;;;;;4828370;29;20045;-77
2023/03/10 11:27:42;;;;;;;0.20;0.20;;;;;;;;;;4842459;29;20050;-77
2023/03/10 11:30:11;;;;;;;0.10;0.10;;;;;;;;;;4830165;29;20105;-75
2023/03/10 11:32:37;;;;;;;0.20;0.20;;;;;;;;;;4836540;29;20522;-75
2023/03/10 11:35:21;;;;;;;0.15;0.15;;;;;;;;;;4830248;29;20047;-76
2023/03/10 11:37:51;;;;;;;0.20;0.20;;;;;;;;;;4841652;29;20065;-76
2023/03/10 11:40:36;;;;;;;0.20;0.20;;;;;;;;;;4824356;29;20050;-76
2023/03/10 11:43:05;;;;;;;0.20;0.20;;;;;;;;;;4821399;29;20054;-76
2023/03/10 11:45:38;;;;;;;0.20;0.20;;;;;;;;;;4821921;29;20050;-76
2023/03/10 11:48:07;;;;;;;0.20;0.20;;;;;;;;;;4841023;29;20144;-76
2023/03/10 11:50:33;;;;;;;0.20;0.20;;;;;;;;;;4826423;29;20329;-75
2023/03/10 11:53:19;;;;;;;0.20;0.20;;;;;;;;;;4840437;29;20129;-75
2023/03/10 11:55:46;;;;;;;0.20;0.20;;;;;;;;;;4821309;29;20059;-76
2023/03/10 11:58:21;;;;;;;0.20;0.20;;;;;;;;;;4834906;29;20399;-76
2023/03/10 12:00:47;;;;;;;0.20;0.20;;;;;;;;;;4841715;29;20522;-76
2023/03/10 12:03:16;;;;;;;0.20;0.20;;;;;;;;;;4828985;29;20046;-76
2023/03/10 12:05:54;;;;;;;0.20;0.20;;;;;;;;;;4831790;29;20050;-76
2023/03/10 12:08:24;;;;;;;0.20;0.20;;;;;;;;;;4841022;29;20041;-76
2023/03/10 12:10:52;;;;;;;0.20;0.20;;;;;;;;;;4840579;29;20053;-77
2023/03/10 12:13:22;;;;;;;0.20;0.20;;;;;;;;;;4839230;29;20197;-76
2023/03/10 12:15:48;;;;;;;0.10;0.10;;;;;;;;;;4852488;29;20060;-76
2023/03/10 12:18:15;;;;;;;0.20;0.20;;;;;;;;;;4837837;29;20056;-75
2023/03/10 12:20:41;;;;;;;0.10;0.10;;;;;;;;;;4833144;29;20049;-76
2023/03/10 12:23:10;;;;;;;0.20;0.20;;;;;;;;;;4838323;29;20090;-77
2023/03/10 12:25:38;;;;;;;0.20;0.20;;;;;;;;;;4841111;29;20045;-76
2023/03/10 12:28:11;;;;;;;0.20;0.20;;;;;;;;;;4824078;29;20454;-78
2023/03/10 12:30:47;;;;;;;0.20;0.20;;;;;;;;;;4826979;29;20054;-77
2023/03/10 12:33:41;;;;;;;0.20;0.20;;;;;;;;;;4823935;29;20419;-78
2023/03/10 12:36:16;;;;;;;0.10;0.10;;;;;;;;;;4836606;29;20061;-77
2023/03/10 12:38:47;;;;;;;0.20;0.20;;;;;;;;;;4840394;29;20042;-78
2023/03/10 12:41:14;;;;;;;0.20;0.20;;;;;;;;;;4824428;29;20132;-78
2023/03/10 12:43:46;;;;;;;0.20;0.20;;;;;;;;;;4841441;29;20580;-77
2023/03/10 12:46:15;;;;;;;0.20;0.20;;;;;;;;;;4839952;29;20503;-77
2023/03/10 12:48:45;;;;;;;0.20;0.20;;;;;;;;;;4838009;29;20124;-78
2023/03/10 12:51:13;;;;;;;0.20;0.20;;;;;;;;;;4833100;29;20088;-77
2023/03/10 12:53:59;;;;;;;0.20;0.20;;;;;;;;;;4838460;29;20071;-80
2023/03/10 12:56:35;;;;;;;0.20;0.20;;;;;;;;;;4820697;29;20084;-77
2023/03/10 12:59:07;;;;;;;0.20;0.20;;;;;;;;;;4830097;29;20460;-75
2023/03/10 13:01:37;;;;;;;0.10;0.10;;;;;;;;;;4840755;29;20054;-77
2023/03/10 13:04:05;;;;;;;0.20;0.20;;;;;;;;;;4821836;29;20046;-77
2023/03/10 13:06:37;;;;;;;0.10;0.10;;;;;;;;;;4840287;29;20069;-78
2023/03/10 13:09:03;;;;;;;;;;;;;;;;;;4822580;29;20440;-77
2023/03/10 13:11:44;;;;;;;0.20;0.20;;;;;;;;;;4822812;29;19924;-77
2023/03/10 13:14:20;;;;;;;0.20;0.20;;;;;;;;;;4824105;29;20054;-78
2023/03/10 13:16:53;;;;;;;0.20;0.20;;;;;;;;;;4839920;29;20048;-77
2023/03/10 13:19:26;;;;;;;0.20;0.20;;;;;;;;;;4840365;29;20499;-76
2023/03/10 13:21:52;;;;;;;0.20;0.20;;;;;;;;;;4839809;29;20046;-78
2023/03/10 13:24:18;;;;;;;0.10;0.10;;;;;;;;;;4824234;29;20376;-77
2023/03/10 13:26:44;;;;;;;0.20;0.20;;;;;;;;;;4822035;29;20057;-75
2023/03/10 13:29:15;;;;;;;0.20;0.20;;;;;;;;;;4818827;29;20045;-77
2023/03/10 13:31:51;;;;;;;0.20;0.20;;;;;;;;;;4822233;29;20053;-78
2023/03/10 13:34:21;;;;;;;0.20;0.20;;;;;;;;;;4818202;29;20062;-77
2023/03/10 13:36:47;;;;;;;0.10;0.10;;;;;;;;;;4838824;29;20053;-77
2023/03/10 13:39:18;;;;;;;0.20;0.20;;;;;;;;;;4840441;29;20537;-77
2023/03/10 13:41:48;;;;;;;0.20;0.20;;;;;;;;;;4838262;29;20060;-77
2023/03/10 13:44:25;;;;;;;0.20;0.20;;;;;;;;;;4848466;29;20050;-77
2023/03/10 13:46:52;;;;;;;0.10;0.10;;;;;;;;;;4826750;29;20418;-76
2023/03/10 13:49:20;;;;;;;0.20;0.20;;;;;;;;;;4839351;29;20060;-78
2023/03/10 13:52:00;;;;;;;0.20;0.20;;;;;;;;;;4819853;29;20069;-76
2023/03/10 13:54:37;;;;;;;0.20;0.20;;;;;;;;;;4804480;29;20054;-77
2023/03/10 13:57:03;;;;;;;0.20;0.20;;;;;;;;;;4818452;29;20104;-76
2023/03/10 13:59:30;;;;;;;0.20;0.20;;;;;;;;;;4824016;29;20045;-76
2023/03/10 14:01:58;;;;;;;0.20;0.20;;;;;;;;;;4824443;29;20049;-76
2023/03/10 14:04:39;;;;;;;0.20;0.20;;;;;;;;;;4837981;29;20046;-76
2023/03/10 14:07:06;;;;;;;0.10;0.10;;;;;;;;;;4840497;29;20383;-76
2023/03/10 14:09:32;;;;;;;0.20;0.20;;;;;;;;;;4823767;29;20096;-76
2023/03/10 14:11:58;;;;;;;0.20;0.20;;;;;;;;;;4837823;29;20046;-76
2023/03/10 14:14:29;;;;;;;0.10;0.10;;;;;;;;;;4834598;29;20437;-75
2023/03/10 14:16:59;;;;;;;0.20;0.20;;;;;;;;;;4838159;29;20122;-75
2023/03/10 14:19:40;;;;;;;0.20;0.20;;;;;;;;;;4834503;29;20311;-74
2023/03/10 14:22:23;;;;;;;0.20;0.20;;;;;;;;;;4815972;29;20058;-75
2023/03/10 14:24:49;;;;;;;0.20;0.20;;;;;;;;;;4833278;29;20049;-75
2023/03/10 14:27:16;;;;;;;0.20;0.20;;;;;;;;;;4848411;29;20109;-75
2023/03/10 14:29:47;;;;;;;0.20;0.20;;;;;;;;;;4837628;29;20062;-75
2023/03/10 14:32:13;;;;;;;;;;;;;;;;;;4831472;29;20165;-76
2023/03/10 14:34:39;;;;;;;0.20;0.20;;;;;;;;;;4820868;29;20301;-74
2023/03/10 14:37:05;;;;;;;0.20;0.20;;;;;;;;;;4838851;29;20077;-75
2023/03/10 14:39:33;;;;;;;0.20;0.20;;;;;;;;;;4825772;29;20050;-76
2023/03/10 14:42:00;;;;;;;0.20;0.20;;;;;;;;;;4807054;29;20050;-76
2023/03/10 14:44:26;;;;;;;0.20;0.20;;;;;;;;;;4821515;29;20082;-75
2023/03/10 14:46:52;;;;;;;0.10;0.10;;;;;;;;;;4826849;29;20615;-76
2023/03/10 14:49:20;;;;;;;0.20;0.20;;;;;;;;;;4822804;29;20042;-77
2023/03/10 14:51:49;;;;;;;0.20;0.20;;;;;;;;;;4832930;29;20052;-76